sensor_id;sensor_type;location;lat;lon;timestamp;noise_LAeq;noise_LA_min;noise_LA_max;noise_LA01;noise_LA95
4048;Laerm;2038;51.728;6.674;2023-06-14T00:01:09;37.51;31.68;42.16;;
4048;Laerm;2038;51.728;6.674;2023-06-14T00:03:35;37.29;31.68;40.13;;
4048;Laerm;2038;51.728;6.674;2023-06-14T00:06:01;38.46;32.35;42.88;;
4048;Laerm;2038;51.728;6.674;2023-06-14T00:08:28;37.68;32.93;41.46;;
4048;Laerm;2038;51.728;6.674;2023-06-14T00:10:54;47.11;32.35;65.37;;
4048;Laerm;2038;51.728;6.674;2023-06-14T00:13:20;37.71;31.68;41.53;;
4048;Laerm;2038;51.728;6.674;2023-06-14T00:15:47;37.78;30.89;41.33;;
4048;Laerm;2038;51.728;6.674;2023-06-14T00:18:13;41.65;32.35;56.34;;
4048;Laerm;2038;51.728;6.674;2023-06-14T00:20:40;39.86;32.35;54.85;;
4048;Laerm;2038;51.728;6.674;2023-06-14T00:23:08;38.04;31.68;42.03;;
4048;Laerm;2038;51.728;6.674;2023-06-14T00:25:34;39.11;32.35;43.09;;
4048;Laerm;2038;51.728;6.674;2023-06-14T00:28:01;38.01;32.93;43.09;;
4048;Laerm;2038;51.728;6.674;2023-06-14T00:30:27;37.72;32.93;41.96;;
4048;Laerm;2038;51.728;6.674;2023-06-14T00:32:56;45.26;32.35;61.38;;
4048;Laerm;2038;51.728;6.674;2023-06-14T00:35:23;37.11;31.68;41.14;;
4048;Laerm;2038;51.728;6.674;2023-06-14T00:37:49;37.47;32.35;41.46;;
4048;Laerm;2038;51.728;6.674;2023-06-14T00:40:16;38.12;31.33;42.65;;
4048;Laerm;2038;51.728;6.674;2023-06-14T00:42:42;39.41;32.35;51.62;;
4048;Laerm;2038;51.728;6.674;2023-06-14T00:45:09;41.84;31.68;54.37;;
4048;Laerm;2038;51.728;6.674;2023-06-14T00:47:38;37.20;31.68;41.96;;
4048;Laerm;2038;51.728;6.674;2023-06-14T00:50:08;37.32;32.35;42.93;;
4048;Laerm;2038;51.728;6.674;2023-06-14T00:52:35;37.39;31.68;41.38;;
4048;Laerm;2038;51.728;6.674;2023-06-14T00:55:02;37.58;32.93;41.38;;
4048;Laerm;2038;51.728;6.674;2023-06-14T00:57:28;37.46;31.68;41.30;;
4048;Laerm;2038;51.728;6.674;2023-06-14T00:59:55;40.21;31.33;54.10;;
4048;Laerm;2038;51.728;6.674;2023-06-14T01:02:22;37.52;31.68;41.82;;
4048;Laerm;2038;51.728;6.674;2023-06-14T01:04:50;37.66;30.89;45.27;;
4048;Laerm;2038;51.728;6.674;2023-06-14T01:10:33;37.46;32.35;41.06;;
4048;Laerm;2038;51.728;6.674;2023-06-14T01:13:24;37.78;32.35;42.16;;
4048;Laerm;2038;51.728;6.674;2023-06-14T01:15:54;37.56;30.89;42.35;;
4048;Laerm;2038;51.728;6.674;2023-06-14T01:18:22;37.55;31.68;41.82;;
4048;Laerm;2038;51.728;6.674;2023-06-14T01:20:50;37.37;31.68;40.89;;
4048;Laerm;2038;51.728;6.674;2023-06-14T01:23:21;37.58;32.35;42.71;;
4048;Laerm;2038;51.728;6.674;2023-06-14T01:25:49;37.54;32.35;42.35;;
4048;Laerm;2038;51.728;6.674;2023-06-14T01:28:20;37.45;32.93;42.47;;
4048;Laerm;2038;51.728;6.674;2023-06-14T01:30:53;37.44;30.89;42.82;;
4048;Laerm;2038;51.728;6.674;2023-06-14T01:33:24;37.55;31.68;41.22;;
4048;Laerm;2038;51.728;6.674;2023-06-14T01:35:53;37.46;31.68;41.75;;
4048;Laerm;2038;51.728;6.674;2023-06-14T01:38:25;37.48;32.93;41.75;;
4048;Laerm;2038;51.728;6.674;2023-06-14T01:40:54;39.87;32.35;55.86;;
4048;Laerm;2038;51.728;6.674;2023-06-14T01:43:22;42.18;32.93;57.03;;
4048;Laerm;2038;51.728;6.674;2023-06-14T01:45:51;37.79;29.92;41.30;;
4048;Laerm;2038;51.728;6.674;2023-06-14T01:48:19;45.90;32.93;62.28;;
4048;Laerm;2038;51.728;6.674;2023-06-14T01:50:46;37.69;32.35;42.16;;
4048;Laerm;2038;51.728;6.674;2023-06-14T01:53:13;37.51;30.89;42.47;;
4048;Laerm;2038;51.728;6.674;2023-06-14T01:55:39;37.41;32.35;41.22;;
4048;Laerm;2038;51.728;6.674;2023-06-14T01:58:10;37.49;32.35;41.61;;
4048;Laerm;2038;51.728;6.674;2023-06-14T02:00:36;37.75;33.44;41.22;;
4048;Laerm;2038;51.728;6.674;2023-06-14T02:03:03;37.85;32.35;41.46;;
4048;Laerm;2038;51.728;6.674;2023-06-14T02:05:32;38.20;32.35;44.62;;
4048;Laerm;2038;51.728;6.674;2023-06-14T02:07:58;39.29;34.31;43.63;;
4048;Laerm;2038;51.728;6.674;2023-06-14T02:10:24;37.78;33.44;42.09;;
4048;Laerm;2038;51.728;6.674;2023-06-14T02:12:50;40.67;33.44;54.16;;
4048;Laerm;2038;51.728;6.674;2023-06-14T02:15:17;39.52;33.44;50.05;;
4048;Laerm;2038;51.728;6.674;2023-06-14T02:17:47;39.17;33.90;51.93;;
4048;Laerm;2038;51.728;6.674;2023-06-14T02:20:15;44.67;35.04;59.40;;
4048;Laerm;2038;51.728;6.674;2023-06-14T02:22:41;39.78;35.04;50.68;;
4048;Laerm;2038;51.728;6.674;2023-06-14T02:25:08;39.35;34.31;54.88;;
4048;Laerm;2038;51.728;6.674;2023-06-14T02:27:35;42.85;34.31;54.13;;
4048;Laerm;2038;51.728;6.674;2023-06-14T02:30:02;42.79;34.69;57.79;;
4048;Laerm;2038;51.728;6.674;2023-06-14T02:32:28;42.26;34.31;54.73;;
4048;Laerm;2038;51.728;6.674;2023-06-14T02:34:54;40.58;35.04;51.42;;
4048;Laerm;2038;51.728;6.674;2023-06-14T02:37:21;42.56;35.94;55.75;;
4048;Laerm;2038;51.728;6.674;2023-06-14T02:39:47;42.09;35.36;54.04;;
4048;Laerm;2038;51.728;6.674;2023-06-14T02:42:14;47.21;35.66;63.12;;
4048;Laerm;2038;51.728;6.674;2023-06-14T02:44:40;39.75;34.31;54.40;;
4048;Laerm;2038;51.728;6.674;2023-06-14T02:47:06;40.17;35.04;53.99;;
4048;Laerm;2038;51.728;6.674;2023-06-14T02:49:32;40.00;33.97;52.33;;
4048;Laerm;2038;51.728;6.674;2023-06-14T02:51:59;42.70;34.69;57.48;;
4048;Laerm;2038;51.728;6.674;2023-06-14T02:54:25;44.07;34.69;56.45;;
4048;Laerm;2038;51.728;6.674;2023-06-14T02:56:52;43.56;34.31;55.64;;
4048;Laerm;2038;51.728;6.674;2023-06-14T02:59:18;47.72;34.69;63.79;;
4048;Laerm;2038;51.728;6.674;2023-06-14T03:01:45;48.75;34.31;62.26;;
4048;Laerm;2038;51.728;6.674;2023-06-14T03:04:12;48.17;34.31;61.17;;
4048;Laerm;2038;51.728;6.674;2023-06-14T03:06:39;52.05;35.36;68.11;;
4048;Laerm;2038;51.728;6.674;2023-06-14T03:09:06;46.82;33.97;59.57;;
4048;Laerm;2038;51.728;6.674;2023-06-14T03:11:32;44.68;33.44;58.93;;
4048;Laerm;2038;51.728;6.674;2023-06-14T03:13:59;44.57;33.90;58.01;;
4048;Laerm;2038;51.728;6.674;2023-06-14T03:16:26;38.43;34.31;47.02;;
4048;Laerm;2038;51.728;6.674;2023-06-14T03:18:55;40.73;35.04;53.83;;
4048;Laerm;2038;51.728;6.674;2023-06-14T03:21:21;41.56;33.90;55.08;;
4048;Laerm;2038;51.728;6.674;2023-06-14T03:23:48;46.14;35.04;60.95;;
4048;Laerm;2038;51.728;6.674;2023-06-14T03:26:15;45.65;35.04;62.01;;
4048;Laerm;2038;51.728;6.674;2023-06-14T03:28:45;44.76;35.36;58.21;;
4048;Laerm;2038;51.728;6.674;2023-06-14T03:31:12;46.82;35.04;60.23;;
4048;Laerm;2038;51.728;6.674;2023-06-14T03:33:39;46.62;35.66;56.92;;
4048;Laerm;2038;51.728;6.674;2023-06-14T03:36:06;41.32;35.94;54.85;;
4048;Laerm;2038;51.728;6.674;2023-06-14T03:38:33;48.48;35.36;63.70;;
4048;Laerm;2038;51.728;6.674;2023-06-14T03:40:59;47.97;36.69;65.67;;
4048;Laerm;2038;51.728;6.674;2023-06-14T03:43:27;48.35;35.66;60.03;;
4048;Laerm;2038;51.728;6.674;2023-06-14T03:45:53;49.22;36.20;63.70;;
4048;Laerm;2038;51.728;6.674;2023-06-14T03:48:19;45.18;35.04;58.45;;
4048;Laerm;2038;51.728;6.674;2023-06-14T03:50:45;44.46;35.66;58.69;;
4048;Laerm;2038;51.728;6.674;2023-06-14T03:53:12;43.52;35.04;57.01;;
4048;Laerm;2038;51.728;6.674;2023-06-14T03:55:38;45.71;35.04;60.02;;
4048;Laerm;2038;51.728;6.674;2023-06-14T03:58:05;41.68;34.31;54.30;;
4048;Laerm;2038;51.728;6.674;2023-06-14T04:00:32;46.10;36.20;56.57;;
4048;Laerm;2038;51.728;6.674;2023-06-14T04:02:58;45.03;35.36;57.53;;
4048;Laerm;2038;51.728;6.674;2023-06-14T04:05:25;47.21;35.66;62.50;;
4048;Laerm;2038;51.728;6.674;2023-06-14T04:07:52;45.16;35.66;58.09;;
4048;Laerm;2038;51.728;6.674;2023-06-14T04:10:21;46.29;35.66;59.53;;
4048;Laerm;2038;51.728;6.674;2023-06-14T04:12:48;48.39;35.36;64.23;;
4048;Laerm;2038;51.728;6.674;2023-06-14T04:15:14;41.72;35.66;55.08;;
4048;Laerm;2038;51.728;6.674;2023-06-14T04:17:41;47.04;36.20;63.43;;
4048;Laerm;2038;51.728;6.674;2023-06-14T04:20:08;47.05;36.69;60.26;;
4048;Laerm;2038;51.728;6.674;2023-06-14T04:22:35;43.43;36.77;57.28;;
4048;Laerm;2038;51.728;6.674;2023-06-14T04:25:02;54.22;37.12;75.27;;
4048;Laerm;2038;51.728;6.674;2023-06-14T04:27:29;44.16;35.66;57.36;;
4048;Laerm;2038;51.728;6.674;2023-06-14T04:29:57;46.51;36.45;59.26;;
4048;Laerm;2038;51.728;6.674;2023-06-14T04:32:26;48.05;35.94;62.22;;
4048;Laerm;2038;51.728;6.674;2023-06-14T04:34:59;48.97;36.69;65.11;;
4048;Laerm;2038;51.728;6.674;2023-06-14T04:37:28;50.17;38.52;61.19;;
4048;Laerm;2038;51.728;6.674;2023-06-14T04:39:56;48.90;37.32;61.91;;
4048;Laerm;2038;51.728;6.674;2023-06-14T04:42:23;46.40;36.69;58.79;;
4048;Laerm;2038;51.728;6.674;2023-06-14T04:44:51;47.57;36.20;59.13;;
4048;Laerm;2038;51.728;6.674;2023-06-14T04:47:21;49.98;36.69;64.79;;
4048;Laerm;2038;51.728;6.674;2023-06-14T04:49:47;47.78;36.69;60.22;;
4048;Laerm;2038;51.728;6.674;2023-06-14T04:52:14;45.41;37.12;56.22;;
4048;Laerm;2038;51.728;6.674;2023-06-14T04:54:41;47.26;37.12;57.55;;
4048;Laerm;2038;51.728;6.674;2023-06-14T04:57:11;47.63;37.32;59.65;;
4048;Laerm;2038;51.728;6.674;2023-06-14T04:59:43;49.24;36.91;62.59;;
4048;Laerm;2038;51.728;6.674;2023-06-14T05:02:11;50.61;36.69;61.97;;
4048;Laerm;2038;51.728;6.674;2023-06-14T05:04:38;47.57;36.69;61.88;;
4048;Laerm;2038;51.728;6.674;2023-06-14T05:07:08;48.11;38.05;57.24;;
4048;Laerm;2038;51.728;6.674;2023-06-14T05:09:35;49.32;37.52;62.15;;
4048;Laerm;2038;51.728;6.674;2023-06-14T05:12:03;49.07;37.12;60.22;;
4048;Laerm;2038;51.728;6.674;2023-06-14T05:14:29;48.36;37.32;60.26;;
4048;Laerm;2038;51.728;6.674;2023-06-14T05:16:55;47.17;37.88;64.11;;
4048;Laerm;2038;51.728;6.674;2023-06-14T05:19:23;46.60;37.12;59.49;;
4048;Laerm;2038;51.728;6.674;2023-06-14T05:21:49;47.35;37.12;61.52;;
4048;Laerm;2038;51.728;6.674;2023-06-14T05:24:16;47.76;36.91;57.64;;
4048;Laerm;2038;51.728;6.674;2023-06-14T05:26:44;49.25;38.05;65.44;;
4048;Laerm;2038;51.728;6.674;2023-06-14T05:29:10;53.40;36.69;69.25;;
4048;Laerm;2038;51.728;6.674;2023-06-14T05:31:36;47.69;37.12;62.14;;
4048;Laerm;2038;51.728;6.674;2023-06-14T05:34:03;50.33;37.52;63.20;;
4048;Laerm;2038;51.728;6.674;2023-06-14T05:36:29;48.17;34.69;58.91;;
4048;Laerm;2038;51.728;6.674;2023-06-14T05:38:55;47.37;36.45;58.60;;
4048;Laerm;2038;51.728;6.674;2023-06-14T05:41:28;49.13;36.20;59.78;;
4048;Laerm;2038;51.728;6.674;2023-06-14T05:43:56;53.07;39.08;67.23;;
4048;Laerm;2038;51.728;6.674;2023-06-14T05:46:23;46.78;36.45;55.27;;
4048;Laerm;2038;51.728;6.674;2023-06-14T05:48:55;47.69;37.12;60.09;;
4048;Laerm;2038;51.728;6.674;2023-06-14T05:51:22;47.63;37.70;57.27;;
4048;Laerm;2038;51.728;6.674;2023-06-14T05:53:50;46.19;37.12;54.85;;
4048;Laerm;2038;51.728;6.674;2023-06-14T05:56:18;48.39;36.91;60.10;;
4048;Laerm;2038;51.728;6.674;2023-06-14T05:58:45;49.18;36.20;61.20;;
4048;Laerm;2038;51.728;6.674;2023-06-14T06:01:12;47.87;37.52;59.47;;
4048;Laerm;2038;51.728;6.674;2023-06-14T06:03:39;50.81;37.70;66.31;;
4048;Laerm;2038;51.728;6.674;2023-06-14T06:06:05;45.24;35.04;59.98;;
4048;Laerm;2038;51.728;6.674;2023-06-14T06:08:33;45.22;38.52;54.79;;
4048;Laerm;2038;51.728;6.674;2023-06-14T06:10:59;46.01;36.45;58.41;;
4048;Laerm;2038;51.728;6.674;2023-06-14T06:13:26;49.12;37.52;60.20;;
4048;Laerm;2038;51.728;6.674;2023-06-14T06:15:52;47.89;37.12;61.61;;
4048;Laerm;2038;51.728;6.674;2023-06-14T06:18:19;46.24;38.52;58.26;;
4048;Laerm;2038;51.728;6.674;2023-06-14T06:20:45;47.67;37.88;58.07;;
4048;Laerm;2038;51.728;6.674;2023-06-14T06:23:13;47.04;37.32;57.95;;
4048;Laerm;2038;51.728;6.674;2023-06-14T06:25:39;49.25;38.32;59.70;;
4048;Laerm;2038;51.728;6.674;2023-06-14T06:28:06;47.66;36.20;61.12;;
4048;Laerm;2038;51.728;6.674;2023-06-14T06:30:32;48.53;37.12;61.13;;
4048;Laerm;2038;51.728;6.674;2023-06-14T06:32:58;49.94;36.45;63.85;;
4048;Laerm;2038;51.728;6.674;2023-06-14T06:35:25;46.22;38.67;56.71;;
4048;Laerm;2038;51.728;6.674;2023-06-14T06:37:51;47.57;37.12;57.17;;
4048;Laerm;2038;51.728;6.674;2023-06-14T06:40:18;50.02;37.52;62.15;;
4048;Laerm;2038;51.728;6.674;2023-06-14T06:42:45;45.80;35.66;57.45;;
4048;Laerm;2038;51.728;6.674;2023-06-14T06:45:11;46.69;36.45;59.99;;
4048;Laerm;2038;51.728;6.674;2023-06-14T06:47:37;47.53;36.20;60.05;;
4048;Laerm;2038;51.728;6.674;2023-06-14T06:50:04;45.64;34.69;59.70;;
4048;Laerm;2038;51.728;6.674;2023-06-14T06:52:30;45.32;36.45;53.88;;
4048;Laerm;2038;51.728;6.674;2023-06-14T06:54:56;48.63;35.94;62.67;;
4048;Laerm;2038;51.728;6.674;2023-06-14T06:57:23;47.64;38.37;57.06;;
4048;Laerm;2038;51.728;6.674;2023-06-14T06:59:50;51.21;36.91;69.31;;
4048;Laerm;2038;51.728;6.674;2023-06-14T07:02:16;45.93;36.91;58.79;;
4048;Laerm;2038;51.728;6.674;2023-06-14T07:04:43;45.67;37.88;54.54;;
4048;Laerm;2038;51.728;6.674;2023-06-14T07:07:09;48.44;37.32;59.63;;
4048;Laerm;2038;51.728;6.674;2023-06-14T07:09:38;53.64;40.23;69.07;;
4048;Laerm;2038;51.728;6.674;2023-06-14T07:12:04;47.87;39.35;60.08;;
4048;Laerm;2038;51.728;6.674;2023-06-14T07:14:31;48.96;38.52;61.65;;
4048;Laerm;2038;51.728;6.674;2023-06-14T07:16:57;47.03;39.21;58.49;;
4048;Laerm;2038;51.728;6.674;2023-06-14T07:19:23;50.97;38.67;66.85;;
4048;Laerm;2038;51.728;6.674;2023-06-14T07:21:49;47.36;37.70;60.48;;
4048;Laerm;2038;51.728;6.674;2023-06-14T07:24:16;51.33;37.32;67.69;;
4048;Laerm;2038;51.728;6.674;2023-06-14T07:26:42;46.74;39.92;55.23;;
4048;Laerm;2038;51.728;6.674;2023-06-14T07:29:08;46.80;37.88;60.77;;
4048;Laerm;2038;51.728;6.674;2023-06-14T07:31:34;43.87;37.12;53.49;;
4048;Laerm;2038;51.728;6.674;2023-06-14T07:34:01;47.80;38.37;58.45;;
4048;Laerm;2038;51.728;6.674;2023-06-14T07:36:27;50.59;37.88;67.52;;
4048;Laerm;2038;51.728;6.674;2023-06-14T07:38:53;45.91;39.21;56.83;;
4048;Laerm;2038;51.728;6.674;2023-06-14T07:41:20;49.12;38.05;62.93;;
4048;Laerm;2038;51.728;6.674;2023-06-14T07:43:46;47.30;38.05;58.37;;
4048;Laerm;2038;51.728;6.674;2023-06-14T07:46:12;44.55;35.94;54.34;;
4048;Laerm;2038;51.728;6.674;2023-06-14T07:48:38;49.72;37.12;65.13;;
4048;Laerm;2038;51.728;6.674;2023-06-14T07:51:05;44.53;38.37;54.03;;
4048;Laerm;2038;51.728;6.674;2023-06-14T07:53:31;44.84;37.17;55.75;;
4048;Laerm;2038;51.728;6.674;2023-06-14T07:55:57;47.42;36.34;58.44;;
4048;Laerm;2038;51.728;6.674;2023-06-14T07:58:24;49.85;37.88;64.56;;
4048;Laerm;2038;51.728;6.674;2023-06-14T08:00:50;52.71;36.69;68.91;;
4048;Laerm;2038;51.728;6.674;2023-06-14T08:03:17;46.75;37.32;59.39;;
4048;Laerm;2038;51.728;6.674;2023-06-14T08:05:44;48.35;36.91;62.44;;
4048;Laerm;2038;51.728;6.674;2023-06-14T08:08:10;45.58;37.52;55.66;;
4048;Laerm;2038;51.728;6.674;2023-06-14T08:10:36;44.64;38.05;57.06;;
4048;Laerm;2038;51.728;6.674;2023-06-14T08:13:03;46.58;36.91;61.99;;
4048;Laerm;2038;51.728;6.674;2023-06-14T08:15:29;48.90;39.46;60.83;;
4048;Laerm;2038;51.728;6.674;2023-06-14T08:17:55;51.00;39.70;66.00;;
4048;Laerm;2038;51.728;6.674;2023-06-14T08:20:22;45.68;37.52;55.68;;
4048;Laerm;2038;51.728;6.674;2023-06-14T08:22:48;46.44;36.45;57.86;;
4048;Laerm;2038;51.728;6.674;2023-06-14T08:25:14;48.38;38.95;63.73;;
4048;Laerm;2038;51.728;6.674;2023-06-14T08:27:41;49.02;37.52;64.54;;
4048;Laerm;2038;51.728;6.674;2023-06-14T08:30:08;45.27;36.69;56.95;;
4048;Laerm;2038;51.728;6.674;2023-06-14T08:32:34;48.55;36.69;61.90;;
4048;Laerm;2038;51.728;6.674;2023-06-14T08:35:00;45.50;37.32;56.93;;
4048;Laerm;2038;51.728;6.674;2023-06-14T08:37:26;47.31;36.69;60.35;;
4048;Laerm;2038;51.728;6.674;2023-06-14T08:39:53;46.54;37.32;55.86;;
4048;Laerm;2038;51.728;6.674;2023-06-14T08:42:20;46.46;37.52;63.93;;
4048;Laerm;2038;51.728;6.674;2023-06-14T08:44:47;47.02;38.95;57.97;;
4048;Laerm;2038;51.728;6.674;2023-06-14T08:47:15;52.63;39.46;64.12;;
4048;Laerm;2038;51.728;6.674;2023-06-14T08:49:46;45.92;37.70;60.91;;
4048;Laerm;2038;51.728;6.674;2023-06-14T08:52:16;47.54;37.52;62.28;;
4048;Laerm;2038;51.728;6.674;2023-06-14T08:54:46;44.88;37.12;59.38;;
4048;Laerm;2038;51.728;6.674;2023-06-14T08:57:14;48.09;38.52;58.23;;
4048;Laerm;2038;51.728;6.674;2023-06-14T08:59:47;53.01;36.20;72.67;;
4048;Laerm;2038;51.728;6.674;2023-06-14T09:02:15;45.84;35.36;56.23;;
4048;Laerm;2038;51.728;6.674;2023-06-14T09:04:44;46.44;38.52;56.13;;
4048;Laerm;2038;51.728;6.674;2023-06-14T09:07:11;51.38;38.37;63.49;;
4048;Laerm;2038;51.728;6.674;2023-06-14T09:09:41;53.21;38.52;69.72;;
4048;Laerm;2038;51.728;6.674;2023-06-14T09:12:16;49.86;39.70;65.39;;
4048;Laerm;2038;51.728;6.674;2023-06-14T09:14:43;49.99;40.33;64.11;;
4048;Laerm;2038;51.728;6.674;2023-06-14T09:17:13;46.54;38.95;57.09;;
4048;Laerm;2038;51.728;6.674;2023-06-14T09:19:39;48.87;37.70;59.17;;
4048;Laerm;2038;51.728;6.674;2023-06-14T09:22:05;47.16;38.05;61.99;;
4048;Laerm;2038;51.728;6.674;2023-06-14T09:24:31;51.01;38.37;66.78;;
4048;Laerm;2038;51.728;6.674;2023-06-14T09:26:58;48.08;37.70;62.60;;
4048;Laerm;2038;51.728;6.674;2023-06-14T09:29:24;49.03;37.70;64.48;;
4048;Laerm;2038;51.728;6.674;2023-06-14T09:31:51;46.41;37.88;57.79;;
4048;Laerm;2038;51.728;6.674;2023-06-14T09:34:18;49.96;40.80;65.52;;
4048;Laerm;2038;51.728;6.674;2023-06-14T09:36:46;48.46;39.21;57.06;;
4048;Laerm;2038;51.728;6.674;2023-06-14T09:39:17;43.65;38.67;53.51;;
4048;Laerm;2038;51.728;6.674;2023-06-14T09:41:44;48.74;38.81;62.47;;
4048;Laerm;2038;51.728;6.674;2023-06-14T09:44:11;51.05;41.53;63.46;;
4048;Laerm;2038;51.728;6.674;2023-06-14T09:46:40;46.61;38.52;57.07;;
4048;Laerm;2038;51.728;6.674;2023-06-14T09:49:07;46.37;38.81;55.98;;
4048;Laerm;2038;51.728;6.674;2023-06-14T09:51:34;49.72;39.92;64.09;;
4048;Laerm;2038;51.728;6.674;2023-06-14T09:54:05;49.97;38.05;64.68;;
4048;Laerm;2038;51.728;6.674;2023-06-14T09:56:44;47.98;38.81;61.80;;
4048;Laerm;2038;51.728;6.674;2023-06-14T09:59:14;47.50;39.08;61.00;;
4048;Laerm;2038;51.728;6.674;2023-06-14T10:01:44;49.63;40.53;61.34;;
4048;Laerm;2038;51.728;6.674;2023-06-14T10:04:13;47.32;37.70;58.53;;
4048;Laerm;2038;51.728;6.674;2023-06-14T10:06:45;45.99;37.32;56.88;;
4048;Laerm;2038;51.728;6.674;2023-06-14T10:09:14;46.16;37.87;56.61;;
4048;Laerm;2038;51.728;6.674;2023-06-14T10:11:41;45.92;40.53;55.28;;
4048;Laerm;2038;51.728;6.674;2023-06-14T10:14:11;48.11;37.32;67.39;;
4048;Laerm;2038;51.728;6.674;2023-06-14T10:16:56;46.46;39.92;58.11;;
4048;Laerm;2038;51.728;6.674;2023-06-14T10:19:37;47.06;39.21;60.74;;
4048;Laerm;2038;51.728;6.674;2023-06-14T10:22:18;46.40;35.04;58.02;;
4048;Laerm;2038;51.728;6.674;2023-06-14T10:24:46;49.27;35.36;61.28;;
4048;Laerm;2038;51.728;6.674;2023-06-14T10:27:14;45.66;37.88;62.64;;
4048;Laerm;2038;51.728;6.674;2023-06-14T10:32:25;44.41;36.69;55.82;;
4048;Laerm;2038;51.728;6.674;2023-06-14T10:35:04;49.77;37.12;65.36;;
4048;Laerm;2038;51.728;6.674;2023-06-14T10:37:31;46.23;39.21;56.13;;
4048;Laerm;2038;51.728;6.674;2023-06-14T10:39:58;48.90;37.12;62.94;;
4048;Laerm;2038;51.728;6.674;2023-06-14T10:42:31;48.21;37.88;61.87;;
4048;Laerm;2038;51.728;6.674;2023-06-14T10:45:00;44.56;37.17;55.80;;
4048;Laerm;2038;51.728;6.674;2023-06-14T10:47:36;48.95;39.34;63.48;;
4048;Laerm;2038;51.728;6.674;2023-06-14T10:50:09;49.81;37.88;65.37;;
4048;Laerm;2038;51.728;6.674;2023-06-14T10:52:41;45.61;35.66;58.18;;
4048;Laerm;2038;51.728;6.674;2023-06-14T10:55:15;46.42;35.36;59.45;;
4048;Laerm;2038;51.728;6.674;2023-06-14T10:57:49;44.66;36.69;52.89;;
4048;Laerm;2038;51.728;6.674;2023-06-14T11:00:20;47.34;38.37;62.30;;
4048;Laerm;2038;51.728;6.674;2023-06-14T11:03:43;45.13;35.94;59.23;;
4048;Laerm;2038;51.728;6.674;2023-06-14T11:06:14;47.16;37.32;57.84;;
4048;Laerm;2038;51.728;6.674;2023-06-14T11:09:10;47.31;36.91;60.83;;
4048;Laerm;2038;51.728;6.674;2023-06-14T11:11:43;45.95;37.32;57.06;;
4048;Laerm;2038;51.728;6.674;2023-06-14T11:14:10;45.72;38.21;55.16;;
4048;Laerm;2038;51.728;6.674;2023-06-14T11:16:37;48.26;38.67;62.55;;
4048;Laerm;2038;51.728;6.674;2023-06-14T11:19:03;49.34;37.88;65.78;;
4048;Laerm;2038;51.728;6.674;2023-06-14T11:21:32;45.58;36.69;60.00;;
4048;Laerm;2038;51.728;6.674;2023-06-14T11:23:59;46.95;36.45;63.04;;
4048;Laerm;2038;51.728;6.674;2023-06-14T11:26:32;48.64;36.45;63.58;;
4048;Laerm;2038;51.728;6.674;2023-06-14T11:29:01;48.07;37.70;60.26;;
4048;Laerm;2038;51.728;6.674;2023-06-14T11:31:28;43.67;37.52;55.18;;
4048;Laerm;2038;51.728;6.674;2023-06-14T11:33:56;45.92;38.81;56.36;;
4048;Laerm;2038;51.728;6.674;2023-06-14T11:36:31;45.90;39.21;56.70;;
4048;Laerm;2038;51.728;6.674;2023-06-14T11:39:04;49.14;37.12;61.55;;
4048;Laerm;2038;51.728;6.674;2023-06-14T11:41:45;49.13;37.12;62.31;;
4048;Laerm;2038;51.728;6.674;2023-06-14T11:44:12;46.14;34.69;57.62;;
4048;Laerm;2038;51.728;6.674;2023-06-14T11:46:39;43.80;36.91;54.22;;
4048;Laerm;2038;51.728;6.674;2023-06-14T11:49:06;46.97;37.70;61.42;;
4048;Laerm;2038;51.728;6.674;2023-06-14T11:51:34;46.99;37.52;60.34;;
4048;Laerm;2038;51.728;6.674;2023-06-14T11:54:04;43.23;35.36;53.83;;
4048;Laerm;2038;51.728;6.674;2023-06-14T11:56:31;44.31;36.45;54.70;;
4048;Laerm;2038;51.728;6.674;2023-06-14T11:58:58;48.56;37.52;59.44;;
4048;Laerm;2038;51.728;6.674;2023-06-14T12:01:24;45.22;37.32;55.83;;
4048;Laerm;2038;51.728;6.674;2023-06-14T12:03:53;47.70;38.21;64.23;;
4048;Laerm;2038;51.728;6.674;2023-06-14T12:06:31;45.71;36.20;65.33;;
4048;Laerm;2038;51.728;6.674;2023-06-14T12:09:06;46.42;38.81;60.67;;
4048;Laerm;2038;51.728;6.674;2023-06-14T12:11:39;47.53;39.21;58.11;;
4048;Laerm;2038;51.728;6.674;2023-06-14T12:14:05;44.12;37.52;58.35;;
4048;Laerm;2038;51.728;6.674;2023-06-14T12:16:38;45.51;36.45;54.95;;
4048;Laerm;2038;51.728;6.674;2023-06-14T12:19:15;49.85;39.92;61.25;;
4048;Laerm;2038;51.728;6.674;2023-06-14T12:21:43;47.83;36.69;59.86;;
4048;Laerm;2038;51.728;6.674;2023-06-14T12:24:13;46.68;37.52;55.52;;
4048;Laerm;2038;51.728;6.674;2023-06-14T12:26:40;47.63;38.52;56.60;;
4048;Laerm;2038;51.728;6.674;2023-06-14T12:29:07;46.51;40.23;56.88;;
4048;Laerm;2038;51.728;6.674;2023-06-14T12:31:34;48.18;40.71;61.29;;
4048;Laerm;2038;51.728;6.674;2023-06-14T12:34:00;45.74;38.95;54.61;;
4048;Laerm;2038;51.728;6.674;2023-06-14T12:36:27;46.45;38.05;55.91;;
4048;Laerm;2038;51.728;6.674;2023-06-14T12:38:53;45.01;38.05;55.53;;
4048;Laerm;2038;51.728;6.674;2023-06-14T12:41:21;45.96;38.95;55.08;;
4048;Laerm;2038;51.728;6.674;2023-06-14T12:43:48;47.73;34.69;61.98;;
4048;Laerm;2038;51.728;6.674;2023-06-14T12:46:14;49.08;35.66;60.92;;
4048;Laerm;2038;51.728;6.674;2023-06-14T12:48:40;48.58;37.88;59.00;;
4048;Laerm;2038;51.728;6.674;2023-06-14T12:51:07;48.82;37.70;60.06;;
4048;Laerm;2038;51.728;6.674;2023-06-14T12:53:33;49.21;36.69;61.70;;
4048;Laerm;2038;51.728;6.674;2023-06-14T12:55:59;44.57;37.70;55.91;;
4048;Laerm;2038;51.728;6.674;2023-06-14T12:58:25;46.06;37.88;56.90;;
4048;Laerm;2038;51.728;6.674;2023-06-14T13:00:51;47.89;36.20;58.62;;
4048;Laerm;2038;51.728;6.674;2023-06-14T13:03:18;43.63;36.91;53.54;;
4048;Laerm;2038;51.728;6.674;2023-06-14T13:05:44;42.78;35.04;54.36;;
4048;Laerm;2038;51.728;6.674;2023-06-14T13:08:10;44.38;36.45;55.61;;
4048;Laerm;2038;51.728;6.674;2023-06-14T13:10:37;47.35;39.21;58.20;;
4048;Laerm;2038;51.728;6.674;2023-06-14T13:13:04;49.05;36.45;65.57;;
4048;Laerm;2038;51.728;6.674;2023-06-14T13:15:30;46.40;38.05;59.74;;
4048;Laerm;2038;51.728;6.674;2023-06-14T13:17:56;48.39;37.70;61.37;;
4048;Laerm;2038;51.728;6.674;2023-06-14T13:20:23;48.56;38.05;61.97;;
4048;Laerm;2038;51.728;6.674;2023-06-14T13:22:49;48.09;37.70;57.70;;
4048;Laerm;2038;51.728;6.674;2023-06-14T13:25:15;48.03;37.17;62.45;;
4048;Laerm;2038;51.728;6.674;2023-06-14T13:27:41;44.32;36.45;56.26;;
4048;Laerm;2038;51.728;6.674;2023-06-14T13:30:08;50.33;38.32;67.27;;
4048;Laerm;2038;51.728;6.674;2023-06-14T13:32:35;53.56;35.94;77.12;;
4048;Laerm;2038;51.728;6.674;2023-06-14T13:35:01;47.33;35.04;58.57;;
4048;Laerm;2038;51.728;6.674;2023-06-14T13:37:28;47.83;38.21;61.51;;
4048;Laerm;2038;51.728;6.674;2023-06-14T13:39:54;49.41;36.45;65.03;;
4048;Laerm;2038;51.728;6.674;2023-06-14T13:42:21;47.22;35.36;63.55;;
4048;Laerm;2038;51.728;6.674;2023-06-14T13:44:47;48.84;37.32;60.46;;
4048;Laerm;2038;51.728;6.674;2023-06-14T13:47:13;45.47;36.45;55.22;;
4048;Laerm;2038;51.728;6.674;2023-06-14T13:49:39;48.32;36.20;60.73;;
4048;Laerm;2038;51.728;6.674;2023-06-14T13:52:07;47.44;36.45;61.33;;
4048;Laerm;2038;51.728;6.674;2023-06-14T13:54:33;45.83;36.69;56.66;;
4048;Laerm;2038;51.728;6.674;2023-06-14T13:56:59;48.79;36.91;61.86;;
4048;Laerm;2038;51.728;6.674;2023-06-14T13:59:25;46.91;37.88;60.23;;
4048;Laerm;2038;51.728;6.674;2023-06-14T14:01:52;44.57;36.45;53.49;;
4048;Laerm;2038;51.728;6.674;2023-06-14T14:04:18;47.57;37.52;61.26;;
4048;Laerm;2038;51.728;6.674;2023-06-14T14:06:44;46.32;38.05;55.48;;
4048;Laerm;2038;51.728;6.674;2023-06-14T14:09:11;46.52;38.21;58.97;;
4048;Laerm;2038;51.728;6.674;2023-06-14T14:11:38;46.82;36.20;58.75;;
4048;Laerm;2038;51.728;6.674;2023-06-14T14:14:05;48.69;37.70;58.87;;
4048;Laerm;2038;51.728;6.674;2023-06-14T14:16:32;47.94;37.12;60.14;;
4048;Laerm;2038;51.728;6.674;2023-06-14T14:18:58;45.90;38.05;56.65;;